Tiempo atmosférico en la estación meteorológica de San Fernando, Cádiz (28 m.)



Fecha
DESCASC
Temp. máxima en grados centígrados (hora)
DESCASC
Temp. mínima en grados centígrados (hora)
DESCASC
Temp. media en grados centígrados
DESCASC
Racha de viento máxima en m/sg (hora)
DESCASC
Velocidad máxima media en intervalos de 10 minutos(hora)
DESCASC
Precipitaciones diarias en mm
DESCASC
Precipitaciones de 00:00 a 06:00 en mm
DESCASC
Precipitaciones de 06:00 a 12:00 en mm
DESCASC
Precipitaciones de 12:00 a 18:00 en mm
DESCASC
Precipitaciones de 18:00 a 24:00 en mm
DESCASC
13-06-2019 25.5 (12:30) 17.7 (06:30) 21.6 7.78 (16:40) 5 (16:40) 0 0 0 0 0
12-06-2019 30.2 (14:50) 17 (05:40) 23.6 13.33 (10:10) 6.67 (10:10) 0 0 0 0 0
11-06-2019 22.2 (18:30) 17.3 (08:40) 19.8 10.28 (16:10) 6.67 (15:40) 0 0 0 0 0
10-06-2019 22.3 (17:20) 17.7 (06:40) 20 10.28 (01:20) 7.22 (17:10) 0 0 0 0 0
09-06-2019 22.2 (17:00) 18.4 (00:00) 20.3 10.83 (19:00) 7.5 (18:30) 0 0 0 0 0
08-06-2019 24.4 (11:10) 15.7 (00:00) 20 8.61 (15:20) 5.56 (16:20) 0 0 0 0 0
07-06-2019 22.3 (13:50) 16.4 (00:00) 19.3 9.72 (18:20) 6.11 (16:40) 0.6 0.1 0.5 0 0
06-06-2019 20.8 (12:50) 15.9 (00:00) 18.3 9.17 (20:00) 5.83 (15:20) 0 0 0 0 0
05-06-2019 21.1 (15:50) 16.8 (00:00) 18.9 13.33 (05:20) 8.33 (18:40) 0 0 0 0 0
04-06-2019 23.1 (14:50) 17.3 (00:00) 20.2 10.56 (17:50) 7.22 (17:50) 0 0 0 0 0
03-06-2019 31.8 (12:40) 19 (00:00) 25.4 9.17 (02:10) 4.72 (09:40) 0 0 0 0 0
02-06-2019 33.4 (16:40) 20.8 (00:00) 27.1 15 (04:00) 8.33 (10:20) 0 0 0 0 0
01-06-2019 30.4 (17:10) 19.6 (00:00) 25 20.28 (12:10) 9.17 (11:10) 0 0 0 0 0
31-05-2019 28.8 (16:20) 18.7 (00:00) 23.8 18.89 (15:50) 10 (18:40) 0 0 0 0 0
30-05-2019 28 (15:10) 19.7 (00:00) 23.9 21.39 (15:50) 10.83 (15:50) 0 0 0 0 0
29-05-2019 30.9 (17:00) 18.3 (00:00) 24.6 14.44 (12:20) 8.33 (20:20) 0 0 0 0 0
28-05-2019 26.1 (13:40) 18.1 (00:00) 22.1 6.94 (16:20) 4.44 (14:20) 0 0 0 0 0
27-05-2019 26.1 (13:00) 17.5 (00:00) 21.8 8.33 (18:10) 5.83 (18:10) 0 0 0 0 0
26-05-2019 30.4 (13:00) 17.7 (00:00) 24.1 8.06 (10:30) 4.72 (13:20) 0 0 0 0 0
25-05-2019 27.1 (13:30) 16.8 (00:00) 21.9 10 (05:10) 5.83 (15:40) 0 0 0 0 0
24-05-2019 22.1 (16:50) 17.2 (00:00) 19.7 10.56 (15:20) 7.22 (16:30) 0 0 0 0 0
23-05-2019 27.3 (11:10) 17.2 (00:00) 22.3 7.22 (15:00) 5 (15:00) 0 0 0 0 0
22-05-2019 26.6 (12:10) 15 (00:00) 20.8 7.5 (15:10) 4.72 (15:20) 0 0 0 0 0
21-05-2019 21.3 (18:00) 16.9 (07:10) 19.1 8.89 (15:10) 5.83 (15:20) 0 0 0 0 0
20-05-2019 22.5 (18:10) 16.8 (07:50) 19.6 9.44 (19:40) 6.67 (19:40) 0 0 0 0 0
19-05-2019 20.3 (16:40) 15.9 (00:00) 18.1 11.67 (18:40) 8.33 (18:50) 0 0 0 0 0
18-05-2019 19.5 (01:20) 14.6 (00:00) 17.1 14.44 (18:40) 9.44 (19:20) 0 0 0 0 0
17-05-2019 21.9 (00:00) 14.4 (00:00) 18.1 13.61 (01:10) 8.89 (17:50) 0 0 0 0 0

Gráficas

Temp. máximas Temp. mínimas Temp. medias Precipitaciones Rachas de viento máximas Velocidades máximas media en intervalos de 10 minutos

Datos horarios

Fecha y hora oficial Temperatura (ºC) Velocidad del viento (km/h) Dirección del viento Racha (km/h) Dirección de racha Precipitación (mm) Presión (hPa) Tendencia (hPa) Humedad (%)
2019-06-15 23:00:00 19.2 14 Noroeste 27 Noroeste 0 1014.4 0.3 68
2019-06-15 22:00:00 18.9 16 Noroeste 32 Noroeste 0 1014.1 0.2 68
2019-06-15 21:00:00 19 21 Noroeste 33 Noroeste 0 1014.5 -0.1 70
2019-06-15 20:00:00 20.2 18 Noroeste 35 Oeste 0 1014.1 -0.7 67
2019-06-15 19:00:00 21.1 19 Oeste 33 Oeste 0 1013.9 -1.4 59
2019-06-15 18:00:00 21.5 21 Oeste 34 Oeste 0 1014.6 -0.8 56
2019-06-15 17:00:00 21.7 21 Oeste 35 Oeste 0 1014.8 -1.1 56
2019-06-15 16:00:00 21.6 21 Oeste 34 Oeste 0 1015.3 -1.1 56
2019-06-15 15:00:00 20.9 18 Oeste 31 Noroeste 0 1015.4 -1 64
2019-06-15 14:00:00 20.6 19 Oeste 29 Noroeste 0 1015.9 -0.5 64
2019-06-15 13:00:00 21.6 16 Oeste 27 Oeste 0 1016.4 -0.4 60
2019-06-15 12:00:00 23.4 6 Norte 16 Norte 0 1016.4 -0.2 45
2019-06-15 11:00:00 22 8 Nordeste 19 Nordeste 0 1016.4 0.1 51
2019-06-15 10:00:00 18.6 6 Nordeste 15 Norte 0 1016.8 0.8 58
2019-06-15 09:00:00 16.9 3 Norte 10 Norte 0 1016.6 0.8 64
2019-06-15 08:00:00 15.5 3 Norte 10 Norte 0 1016.3 0.6 65
2019-06-15 07:00:00 15.7 4 Norte 15 Norte 0 1016 0.1 65
2019-06-15 06:00:00 16.8 6 Norte 21 Norte 0 1015.8 -0.2 64
2019-06-15 05:00:00 17.7 11 Noroeste 28 Noroeste 0 1015.7 -0.6 61
2019-06-15 04:00:00 18.3 13 Noroeste 28 Norte 0 1015.9 -0.7 59
2019-06-15 03:00:00 18.9 18 Noroeste 34 Noroeste 0 1016 -0.8 59
2019-06-15 02:00:00 18.6 17 Noroeste 32 Oeste 0 1016.3 -0.3 70
2019-06-15 01:00:00 18.3 17 Oeste 27 Oeste 0 1016.6 0.5 70
2019-06-15 00:00:00 18.1 17 Oeste 28 Oeste 0 1016.8 1.3 67
2019-06-14 23:00:00 17.9 18 Oeste 28 Oeste 0 1016.6 1.3 65
2019-06-14 22:00:00 18.2 17 Oeste 34 Oeste 0 1016.1 1.2 62
2019-06-14 21:00:00 19 21 Oeste 36 Oeste 0 1015.5 0.4 54
2019-06-14 20:00:00 20.2 26 Oeste 40 Oeste 0 1015.3 0.1 56
2019-06-14 19:00:00 20.4 26 Oeste 38 Oeste 0 1014.9 -0.6 55
2019-06-14 18:00:00 20.5 22 Oeste 35 Oeste 0 1015.1 -0.5 56
2019-06-14 17:00:00 20.3 23 Oeste 39 Oeste 0 1015.2 -0.5 55
2019-06-14 16:00:00 20.4 20 Oeste 35 Oeste 0 1015.5 -0.1 56
2019-06-14 15:00:00 19.4 21 Oeste 37 Oeste 0 1015.6 0.4 58
2019-06-14 14:00:00 18.8 16 Oeste 33 Oeste 0 1015.7 1 58
2019-06-14 13:00:00 19.2 17 Oeste 33 Oeste 0 1015.6 1.5 59
2019-06-14 12:00:00 18.2 17 Oeste 29 Oeste 0 1015.2 2.2 67
2019-06-14 11:00:00 17.7 16 Oeste 28 Oeste 0 1014.7 2.5 66
2019-06-14 10:00:00 17.2 15 Oeste 25 Oeste 0 1014.1 2.8 71
2019-06-14 09:00:00 17 14 Oeste 22 Oeste 0 1013 2.4 71
2019-06-14 08:00:00 16.3 15 Oeste 23 Oeste 0 1012.2 2.2 73
2019-06-14 07:00:00 16.4 13 Oeste 23 Oeste 0 1011.3 1.1 71
2019-06-14 06:00:00 17.3 14 Oeste 29 Sudoeste 0 1010.6 0.4 71
2019-06-14 05:00:00 17.6 13 Sudoeste 30 Sudoeste 0 1010 -0.4 74
2019-06-14 04:00:00 18 13 Sudoeste 31 Sudoeste 0 1010.2 -0.6 74
2019-06-14 03:00:00 18.4 13 Sudoeste 25 Sudoeste 0 1010.2 0 68
2019-06-14 02:00:00 19.1 10 Sudoeste 21 Sudoeste 0 1010.4 0.8 68
2019-06-14 01:00:00 19.5 9 Sudoeste 20 Oeste 0 1010.8 2.5 66
2019-06-14 00:00:00 19.2 12 Oeste 22 Oeste 0 1010.2 2.8 67
2019-06-13 23:00:00 19.3 13 Oeste 21 Oeste 0 1009.6 2.4 68
2019-06-13 22:00:00 19.5 15 Oeste 25 Oeste 0 1008.3 1.2 68
2019-06-13 21:00:00 20.2 15 Oeste 27 Oeste 0 1007.4 0.7 67
2019-06-13 20:00:00 20.1 14 Oeste 27 Oeste 0 1007.2 0.6 65
2019-06-13 19:00:00 21.3 17 Oeste 28 Oeste 0 1007.1 0.5 59
2019-06-13 18:00:00 22 17 Oeste 28 Noroeste 0 1006.7 0 53
2019-06-13 17:00:00 22.4 17 Oeste 28 Noroeste 0 1006.6 -0.1 58
2019-06-13 16:00:00 21.9 17 Oeste 26 Oeste 0 1006.6 -0.2 62
2019-06-13 15:00:00 21.8 15 Oeste 26 Oeste 0 1006.7 -0.2 64
2019-06-13 14:00:00 22.2 14 Oeste 22 Oeste 0 1006.7 -0.4 64
2019-06-13 13:00:00 24.3 5 Oeste 27 Este 0 1006.8 -0.4 57
2019-06-13 12:00:00 24.3 6 Este 20 Este 0 1006.9 -0.5 60
2019-06-13 11:00:00 21.1 0 Calma 12 Este 0 1007.1 0 64
2019-06-13 10:00:00 20.2 3 Noroeste 15 Norte 0 1007.2 0.6 65
2019-06-13 09:00:00 18.9 5 Norte 12 Norte 0 1007.4 1.2 67
2019-06-13 08:00:00 17.9 5 Norte 15 Norte 0 1007.1 0.8 79
2019-06-13 07:00:00 18.1 6 Nordeste 17 Este 0 1006.6 0 77
2019-06-13 06:00:00 18.2 11 Este 21 Nordeste 0 1006.2 -0.9 77
2019-06-13 05:00:00 18.4 12 Este 23 Sudeste 0 1006.3 -1 77
2019-06-13 04:00:00 18.9 7 Este 20 Este 0 1006.6 -1 74
2019-06-13 03:00:00 18.9 8 Nordeste 19 Este 0 1007.1 -0.6 77
2019-06-13 02:00:00 19.2 10 Este 23 Este 0 1007.3 -0.4 77
2019-06-13 01:00:00 19.4 10 Este 23 Este 0 1007.6 0.7 77
2019-06-13 00:00:00 19.9 7 Este 22 Sudeste 0 1007.7 1.3 74
2019-06-12 23:00:00 20.4 9 Este 19 Sudeste 0 1007.7 1.4 75
2019-06-12 22:00:00 20.6 3 Oeste 13 Noroeste 0 1006.9 0.4 82
2019-06-12 21:00:00 21.3 9 Noroeste 19 Oeste 0 1006.4 -0.5 79
2019-06-12 20:00:00 21.6 12 Noroeste 23 Oeste 0 1006.3 -0.9 76
2019-06-12 19:00:00 21.8 14 Oeste 25 Oeste 0 1006.5 -0.8 75
2019-06-12 18:00:00 21.8 15 Oeste 27 Noroeste 0 1006.9 -0.7 75
2019-06-12 17:00:00 22 17 Noroeste 32 Noroeste 0 1007.2 -0.7 75
2019-06-12 16:00:00 21.7 19 Noroeste 31 Noroeste 0 1007.3 -0.7 75
2019-06-12 15:00:00 23.9 16 Noroeste 31 Sudeste 0 1007.6 -0.5 62
2019-06-12 14:00:00 29.6 16 Este 37 Este 0 1007.9 0.1 39
2019-06-12 13:00:00 28.2 20 Este 42 Sudeste 0 1008 0.5 44
2019-06-12 12:00:00 27.1 17 Este 48 Sudeste 0 1008.1 0.2 48
2019-06-12 11:00:00 24.6 22 Este 48 Este 0 1007.8 0.1 54
2019-06-12 10:00:00 23 22 Este 45 Sudeste 0 1007.5 0 62
2019-06-12 09:00:00 20.8 14 Sudeste 32 Sudeste 0 1007.9 0.5 74
2019-06-12 08:00:00 17.7 9 Sudeste 21 Sudeste 0 1007.7 0.9 90
2019-06-12 07:00:00 17.1 3 Sudeste 28 Sudeste 0 1007.5 0.6 92
2019-06-12 06:00:00 17.5 11 Sudeste 23 Sudeste 0 1007.4 0.4 92
2019-06-12 05:00:00 17.6 9 Sudeste 21 Sudeste 0 1006.8 -0.4 92
2019-06-12 04:00:00 17.2 9 Este 16 Este 0 1006.9 -0.8 89
2019-06-12 03:00:00 17.6 9 Este 18 Sudeste 0 1007 -1.3 88
2019-06-12 02:00:00 18.9 5 Sudeste 19 Sur 0 1007.2 -1.2 85
2019-06-12 01:00:00 19 9 Sur 15 Sur 0 1007.7 -0.2 83
2019-06-12 00:00:00 19.2 6 Sudoeste 14 Sudoeste 0 1008.3 0.3 83
2019-06-11 23:00:00 19.7 7 Sudoeste 20 Sudoeste 0 1008.4 0.6 80
2019-06-11 22:00:00 20 12 Sudoeste 28 Oeste 0 1007.9 -0.3 74
2019-06-11 21:00:00 20.9 20 Oeste 34 Oeste 0 1008 -0.6 69
2019-06-11 20:00:00 21.5 24 Oeste 34 Oeste 0 1007.8 -1.1 67
2019-06-11 19:00:00 21.6 22 Oeste 33 Oeste 0 1008.2 -1.2 68
2019-06-11 18:00:00 21.6 17 Oeste 32 Oeste 0 1008.6 -1 68
2019-06-11 17:00:00 20.9 22 Oeste 37 Oeste 0 1008.9 -1.3 67
2019-06-11 16:00:00 21.1 19 Oeste 36 Oeste 0 1009.4 -1.1 64
2019-06-11 15:00:00 20.7 23 Oeste 35 Oeste 0 1009.6 -1 62
2019-06-11 14:00:00 19.6 18 Oeste 32 Oeste 0 1010.2 -0.1 65
2019-06-11 13:00:00 18.9 20 Oeste 34 Oeste 0 1010.5 -0.1 67
2019-06-11 12:00:00 18.5 20 Oeste 34 Oeste 0 1010.6 0.3 66
2019-06-11 11:00:00 18.3 14 Oeste 25 Oeste 0 1010.3 0.4 63
2019-06-11 10:00:00 17.9 16 Noroeste 24 Noroeste 0 1010.6 0.7 63
2019-06-11 09:00:00 17.7 13 Noroeste 23 Noroeste 0 1010.3 0.5 62
2019-06-11 08:00:00 17.5 12 Noroeste 19 Noroeste 0 1009.9 -0.4 62
2019-06-11 07:00:00 17.7 6 Noroeste 16 Norte 0 1009.9 -0.5 60
2019-06-11 06:00:00 18.4 8 Noroeste 14 Noroeste 0 1009.8 -1.2 59
2019-06-11 05:00:00 19.1 7 Norte 16 Noroeste 0 1010.3 -1.3 57
2019-06-11 04:00:00 19.5 3 Norte 19 Noroeste 0 1010.4 -2.1 62
2019-06-11 03:00:00 20.4 11 Noroeste 21 Noroeste 0 1011 -1.8 64
2019-06-11 02:00:00 19.1 9 Oeste 17 Sudoeste 0 1011.6 -1.4 83
2019-06-11 01:00:00 19 9 Sudoeste 18 Sudoeste 0 1012.5 -0.3 81
2019-06-11 00:00:00 18.9 6 Sudoeste 17 Sudoeste 0 1012.8 0.2 76
2019-06-10 23:00:00 18.8 8 Sudoeste 23 Oeste 0 1013 0.2 74
2019-06-10 22:00:00 18.8 17 Oeste 28 Oeste 0 1012.8 -0.3 75
2019-06-10 21:00:00 20.1 17 Oeste 32 Oeste 0 1012.6 -0.7 69
2019-06-10 20:00:00 20.5 22 Oeste 36 Oeste 0 1012.8 -0.9 65
2019-06-10 19:00:00 21.5 18 Sudoeste 33 Sudoeste 0 1013.1 -1.1 66
2019-06-10 18:00:00 21.8 20 Oeste 35 Oeste 0 1013.3 -1.6 62
2019-06-10 17:00:00 21.9 24 Oeste 33 Oeste 0 1013.7 -1.5 62
2019-06-10 16:00:00 21.1 21 Oeste 34 Oeste 0 1014.2 -1.4 66
2019-06-10 15:00:00 20.7 18 Oeste 35 Oeste 0 1014.9 -0.5 68
2019-06-10 14:00:00 20.2 19 Oeste 34 Oeste 0 1015.2 -0.4 70
2019-06-10 13:00:00 19.5 19 Oeste 29 Oeste 0 1015.6 0.1 70
2019-06-10 12:00:00 19.5 14 Oeste 25 Oeste 0 1015.4 -0.1 73
2019-06-10 11:00:00 19.8 10 Noroeste 18 Noroeste 0 1015.6 0.7 69
2019-06-10 10:00:00 19.2 9 Noroeste 23 Noroeste 0 1015.5 0.9 73
2019-06-10 09:00:00 18.4 12 Noroeste 23 Noroeste 0 1015.5 0.8 77
2019-06-10 08:00:00 17.9 13 Noroeste 22 Noroeste 0 1014.9 -0.1 79
2019-06-10 07:00:00 17.8 12 Noroeste 26 Noroeste 0 1014.6 -0.8 78
2019-06-10 06:00:00 18 13 Noroeste 30 Noroeste 0 1014.7 -0.8 77
2019-06-10 05:00:00 18 15 Noroeste 31 Noroeste 0 1015 -0.7 78
2019-06-10 04:00:00 18.5 18 Noroeste 31 Noroeste 0 1015.4 -0.4 75
2019-06-10 03:00:00 19.2 19 Noroeste 33 Noroeste 0 1015.5 -0.3 71
2019-06-10 02:00:00 20 21 Noroeste 37 Noroeste 0 1015.7 0 68
2019-06-10 01:00:00 20.7 20 Noroeste 36 Noroeste 0 1015.8 0.3 65
2019-06-10 00:00:00 20.1 19 Oeste 35 Oeste 0 1015.8 0.3 77
2019-06-09 23:00:00 19.7 16 Oeste 28 Oeste 0 1015.7 0.2 77
2019-06-09 22:00:00 19.7 18 Oeste 31 Oeste 0 1015.5 0.2 75
2019-06-09 21:00:00 20.5 18 Oeste 37 Oeste 0 1015.5 0.2 68
2019-06-09 20:00:00 20.9 24 Oeste 38 Oeste 0 1015.5 -0.1 58
2019-06-09 19:00:00 21.2 26 Oeste 39 Oeste 0 1015.3 -0.6 58
2019-06-09 18:00:00 21.6 21 Oeste 36 Oeste 0 1015.3 -0.8 51
2019-06-09 17:00:00 21.8 18 Oeste 29 Oeste 0 1015.6 -0.9 50
2019-06-09 16:00:00 20.5 18 Oeste 27 Oeste 0 1015.9 -0.6 52
2019-06-09 15:00:00 20.7 14 Oeste 26 Oeste 0 1016.1 -0.3 50
2019-06-09 14:00:00 20.1 16 Oeste 27 Oeste 0 1016.5 0.4 56
2019-06-09 13:00:00 20 14 Oeste 23 Noroeste 0 1016.5 0.7 65
2019-06-09 12:00:00 19.7 12 Oeste 23 Oeste 0 1016.4 0.8 68
2019-06-09 11:00:00 20 14 Oeste 23 Sudoeste 0 1016.1 0.9 69
2019-06-09 10:00:00 20.8 9 Sudoeste 21 Sudoeste 0 1015.8 0.9 81
2019-06-09 09:00:00 19.8 6 Sur 15 Sur 0 1015.6 1 85
2019-06-09 08:00:00 18.6 3 Sudeste 7 Sudoeste 0 1015.2 0.5 85
2019-06-09 07:00:00 18.5 3 Sudoeste 7 Sudoeste 0 1014.9 0.2 83
2019-06-09 06:00:00 19 4 Sudoeste 8 Sudoeste 0 1014.6 -0.4 81
2019-06-09 05:00:00 19 4 Sudoeste 13 Sur 0 1014.7 -0.7 79
2019-06-09 04:00:00 19.1 5 Sur 13 Sur 0 1014.7 -0.9 76
2019-06-09 03:00:00 19.4 5 Sur 11 Sudeste 0 1015 -1 71
2019-06-09 02:00:00 19.6 4 Sudeste 9 Sudeste 0 1015.4 0.4 69
2019-06-09 01:00:00 19.8 3 Sur 9 Sur 0 1015.6 0.9 68
2019-06-09 00:00:00 20 6 Sudoeste 10 Sudoeste 0 1016 1.8 69
2019-06-08 23:00:00 20.3 5 Oeste 13 Sudoeste 0 1015 1.3 69
2019-06-08 22:00:00 20.6 10 Oeste 17 Oeste 0 1014.7 1.3 66
2019-06-08 21:00:00 21.2 13 Oeste 19 Oeste 0 1014.2 0.8 62
2019-06-08 20:00:00 22.8 13 Oeste 24 Oeste 0 1013.7 0.1 56
2019-06-08 19:00:00 23.1 12 Oeste 22 Oeste 0 1013.4 -0.3 44
2019-06-08 18:00:00 23.1 14 Oeste 25 Oeste 0 1013.4 -0.5 50
2019-06-08 17:00:00 22.1 15 Oeste 29 Sudoeste 0 1013.6 -0.6 61
2019-06-08 16:00:00 22.8 17 Sudoeste 31 Sudoeste 0 1013.7 -0.5 65
2019-06-08 15:00:00 22.6 14 Sudoeste 28 Sudoeste 0 1013.9 -0.2 68
2019-06-08 14:00:00 23.7 14 Sudoeste 25 Sur 0 1014.2 0.1 59
2019-06-08 13:00:00 24.3 13 Sur 26 Sudoeste 0 1014.2 0 62
2019-06-08 12:00:00 23.4 6 Sudoeste 17 Sudoeste 0 1014.1 0.3 63
2019-06-08 11:00:00 23.3 4 Este 14 Nordeste 0 1014.1 0.3 61
2019-06-08 10:00:00 20 4 Este 13 Este 0 1014.2 0.9 62
2019-06-08 09:00:00 17.5 6 Este 9 Este 0 1013.8 0.7 68
2019-06-08 08:00:00 16 2 Nordeste 5 Nordeste 0 1013.8 0.8 69
2019-06-08 07:00:00 15.7 2 Este 4 Este 0 1013.3 0.1 72
2019-06-08 06:00:00 16.1 3 Norte 6 Norte 0 1013.1 -0.2 70
2019-06-08 05:00:00 16.4 2 Este 5 Este 0 1013 -0.7 78
2019-06-08 04:00:00 16.9 3 Norte 7 Noroeste 0 1013.2 -0.8 75
2019-06-08 03:00:00 17.2 5 Este 13 Este 0 1013.3 -0.9 73
2019-06-08 02:00:00 19.3 5 Este 13 Noroeste 0 1013.7 -0.4 69
2019-06-08 01:00:00 19.7 9 Noroeste 21 Noroeste 0 1014 0.3 72
2019-06-08 00:00:00 19.8 14 Noroeste 25 Noroeste 0 1014.2 0.6 68
2019-06-07 23:00:00 19.8 17 Noroeste 28 Noroeste 0 1014.1 0.8 65
2019-06-07 22:00:00 19.5 18 Noroeste 29 Oeste 0 1013.7 0.3 68
2019-06-07 21:00:00 20.2 19 Noroeste 30 Noroeste 0 1013.6 0.2 67
2019-06-07 20:00:00 20.3 19 Oeste 32 Oeste 0 1013.3 -0.3 64
2019-06-07 19:00:00 20.7 19 Oeste 35 Noroeste 0 1013.4 -0.5 58
2019-06-07 18:00:00 21.4 22 Oeste 35 Oeste 0 1013.4 -0.6 53
2019-06-07 17:00:00 21.4 19 Noroeste 34 Oeste 0 1013.6 -0.6 52
2019-06-07 16:00:00 20.8 21 Oeste 33 Oeste 0 1013.9 -0.4 53
2019-06-07 15:00:00 21.1 18 Oeste 32 Oeste 0 1014 -0.2 52
2019-06-07 14:00:00 21.3 17 Oeste 29 Oeste 0 1014.2 0.1 48
2019-06-07 13:00:00 21.3 14 Noroeste 26 Noroeste 0 1014.3 0.3 43
2019-06-07 12:00:00 19.8 9 Noroeste 24 Noroeste 0 1014.2 0.6 52
2019-06-07 11:00:00 19.3 10 Noroeste 24 Noroeste 0 1014.1 1.2 60
2019-06-07 10:00:00 18.2 9 Norte 23 Noroeste 0 1014 1.9 61
2019-06-07 09:00:00 17.5 7 Norte 25 Noroeste 0 1013.6 2 68
2019-06-07 08:00:00 16.9 11 Noroeste 21 Noroeste 0.1 1012.9 1.3 77
2019-06-07 07:00:00 17 13 Noroeste 29 Noroeste 0.4 1012.1 0.2 94
2019-06-07 06:00:00 18.1 10 Oeste 22 Oeste 0.1 1011.6 -0.4 88
2019-06-07 05:00:00 18.7 12 Oeste 20 Oeste 0 1011.6 -0.4 80
2019-06-07 04:00:00 18.1 12 Oeste 22 Oeste 0 1011.9 -0.1 81
2019-06-07 03:00:00 17.9 15 Oeste 24 Oeste 0 1012 0.3 80
2019-06-07 02:00:00 17.8 15 Oeste 26 Oeste 0 1012 0.7 78
2019-06-07 01:00:00 18 14 Oeste 26 Oeste 0 1012 1.2 77
2019-06-07 00:00:00 18.2 16 Oeste 25 Oeste 0 1011.7 1.3 74
2019-06-06 23:00:00 18.3 16 Oeste 27 Oeste 0 1011.3 1 74
2019-06-06 22:00:00 18.4 19 Oeste 33 Oeste 0 1010.8 0.4 72
2019-06-06 21:00:00 19.2 21 Oeste 33 Oeste 0 1010.4 -0.1 68
2019-06-06 20:00:00 19.8 20 Oeste 33 Oeste 0 1010.3 -0.3 62
2019-06-06 19:00:00 20.1 20 Oeste 33 Oeste 0 1010.4 -0.6 58
2019-06-06 18:00:00 20.2 18 Oeste 31 Oeste 0 1010.5 -0.7 54
2019-06-06 17:00:00 20.3 18 Oeste 33 Oeste 0 1010.6 -0.8 48
2019-06-06 16:00:00 20.2 19 Oeste 32 Oeste 0 1011 -0.4 53
2019-06-06 15:00:00 19.7 20 Oeste 31 Oeste 0 1011.2 -0.1 55
2019-06-06 14:00:00 19.5 20 Oeste 31 Oeste 0 1011.4 -0.1 59
2019-06-06 13:00:00 20.3 15 Oeste 25 Oeste 0 1011.4 -0.2 52
2019-06-06 12:00:00 20.5 10 Oeste 19 Oeste 0 1011.3 -0.2 46
2019-06-06 11:00:00 19 10 Noroeste 17 Noroeste 0 1011.5 0 51
2019-06-06 10:00:00 19.2 8 Norte 15 Nordeste 0 1011.6 0 47
2019-06-06 09:00:00 17.5 3 Norte 16 Norte 0 1011.5 -0.1 53
2019-06-06 08:00:00 16.2 5 Nordeste 17 Noroeste 0 1011.5 -0.1 56
2019-06-06 07:00:00 16.1 7 Norte 21 Noroeste 0 1011.6 -0.3 56
2019-06-06 06:00:00 16.5 7 Norte 18 Noroeste 0 1011.6 -0.5 54
2019-06-06 05:00:00 17.2 8 Norte 20 Norte 0 1011.6 -0.9 53
2019-06-06 04:00:00 17.8 7 Norte 19 Norte 0 1011.9 -0.6 59
2019-06-06 03:00:00 18.4 6 Norte 18 Norte 0 1012.1 -0.5 59
2019-06-06 02:00:00 19.2 10 Norte 22 Oeste 0 1012.5 0.2 62
2019-06-06 01:00:00 18.8 14 Oeste 27 Oeste 0 1012.5 0.7 74
2019-06-06 00:00:00 18.9 17 Oeste 32 Oeste 0 1012.6 0.8 73
2019-06-05 23:00:00 19 21 Oeste 37 Oeste 0 1012.3 0.5 69
2019-06-05 22:00:00 19 22 Oeste 39 Oeste 0 1011.8 -0.2 67
2019-06-05 21:00:00 19.7 26 Oeste 41 Oeste 0 1011.8 -0.5 63
2019-06-05 20:00:00 19.8 26 Oeste 44 Oeste 0 1011.8 -0.9 65
2019-06-05 19:00:00 20.4 27 Oeste 43 Oeste 0 1012 -1.3 62
2019-06-05 18:00:00 20.2 27 Oeste 40 Oeste 0 1012.3 -1.3 61
2019-06-05 17:00:00 20.5 24 Oeste 40 Oeste 0 1012.7 -1.4 59
2019-06-05 16:00:00 20 22 Oeste 36 Oeste 0 1013.3 -1.3 57
2019-06-05 15:00:00 19.9 21 Oeste 35 Oeste 0 1013.6 -0.9 59
2019-06-05 14:00:00 19.6 21 Oeste 31 Noroeste 0 1014.1 -0.3 60
2019-06-05 13:00:00 19.1 19 Noroeste 32 Noroeste 0 1014.6 0.3 61
2019-06-05 12:00:00 18.5 17 Noroeste 33 Noroeste 0 1014.5 0.7 61
2019-06-05 11:00:00 18.8 15 Noroeste 33 Noroeste 0 1014.4 1.3 57
2019-06-05 10:00:00 18.1 15 Noroeste 35 Norte 0 1014.3 1.6 61
2019-06-05 09:00:00 17.4 13 Noroeste 32 Noroeste 0 1013.8 1.6 65
2019-06-05 08:00:00 16.9 13 Noroeste 33 Noroeste 0 1013.1 1.3 64
2019-06-05 07:00:00 17.1 16 Noroeste 35 Norte 0 1012.7 1.2 64
2019-06-05 06:00:00 17.6 23 Noroeste 48 Noroeste 0 1012.2 0.9 62
2019-06-05 05:00:00 18.3 22 Noroeste 39 Noroeste 0 1011.8 0.5 59
2019-06-05 04:00:00 19.2 26 Noroeste 46 Noroeste 0 1011.5 0.7 60
2019-06-05 03:00:00 19.5 26 Noroeste 47 Noroeste 0 1011.3 0.9 68
2019-06-05 02:00:00 19.8 24 Noroeste 40 Noroeste 0 1011.3 1.4 73
2019-06-05 01:00:00 20.1 22 Oeste 33 Oeste 0 1010.8 1.8 85
2019-06-05 00:00:00 20 19 Oeste 29 Oeste 0 1010.4 1.2 86
2019-06-04 23:00:00 20.3 18 Oeste 35 Oeste 0 1009.9 0.8 86
2019-06-04 22:00:00 20 21 Oeste 35 Oeste 0 1009 -0.4 84
2019-06-04 21:00:00 21 20 Oeste 36 Oeste 0 1009.2 -0.5 77
2019-06-04 20:00:00 21.6 22 Oeste 36 Oeste 0 1009.1 -0.9 74
2019-06-04 19:00:00 21.7 25 Oeste 36 Oeste 0 1009.4 -1.1 75
2019-06-04 18:00:00 22.1 23 Oeste 38 Oeste 0 1009.7 -1.3 71
2019-06-04 17:00:00 22.3 23 Oeste 34 Sudoeste 0 1010 -1.6 67
2019-06-04 16:00:00 22.2 19 Oeste 32 Oeste 0 1010.5 -1.1 67
2019-06-04 15:00:00 22.7 16 Oeste 27 Oeste 0 1011 -0.8 64
2019-06-04 14:00:00 21.9 15 Oeste 25 Oeste 0 1011.6 0.1 70
2019-06-04 13:00:00 21 14 Oeste 25 Oeste 0 1011.6 -0.2 78
2019-06-04 12:00:00 21.3 15 Oeste 26 Oeste 0 1011.8 0.7 80
2019-06-04 11:00:00 20.7 14 Noroeste 26 Noroeste 0 1011.5 0.7 83
2019-06-04 10:00:00 20.3 13 Oeste 19 Oeste 0 1011.8 1.3 86
2019-06-04 09:00:00 20 6 Oeste 11 Noroeste 0 1011.1 0.9 88
2019-06-04 08:00:00 17.8 2 Este 6 Sudeste 0 1010.8 0.5 87
2019-06-04 07:00:00 17.5 3 Sudeste 12 Sur 0 1010.5 -0.2 88
2019-06-04 06:00:00 18.6 5 Sur 16 Sudeste 0 1010.2 -1.1 86
2019-06-04 05:00:00 18.7 5 Sur 14 Sur 0 1010.3 -1.5 79
2019-06-04 04:00:00 18.9 6 Sudeste 13 Sur 0 1010.7 -1.4 72
2019-06-04 03:00:00 19.9 4 Sur 12 Sudeste 0 1011.3 -0.9 71
2019-06-04 02:00:00 20.2 4 Sur 14 Sudeste 0 1011.8 -0.3 68
2019-06-04 01:00:00 20.5 7 Sudeste 18 Sur 0 1012.1 0.5 69
2019-06-04 00:00:00 21.2 5 Sudeste 11 Sudoeste 0 1012.2 0.6 69
2019-06-03 23:00:00 21.1 4 Sudoeste 10 Sudoeste 0 1012.1 0.8 69
2019-06-03 22:00:00 21.3 6 Oeste 17 Oeste 0 1011.6 0.3 77
2019-06-03 21:00:00 22.9 12 Oeste 23 Oeste 0 1011.6 0 71
2019-06-03 20:00:00 24.3 15 Oeste 23 Oeste 0 1011.3 -0.6 52
2019-06-03 19:00:00 25.2 13 Oeste 22 Oeste 0 1011.3 -0.9 50
2019-06-03 18:00:00 26.5 15 Oeste 24 Oeste 0 1011.6 -1 45
2019-06-03 17:00:00 25.1 15 Oeste 26 Oeste 0 1011.9 -1.3 49
2019-06-03 16:00:00 26 17 Oeste 23 Oeste 0 1012.2 -1.2 49
2019-06-03 15:00:00 25.8 15 Oeste 24 Oeste 0 1012.6 -0.6 46
2019-06-03 14:00:00 25.7 11 Sudoeste 22 Sudoeste 0 1013.2 -0.1 47
2019-06-03 13:00:00 28 9 Sudoeste 21 Este 0 1013.4 0.2 40
2019-06-03 12:00:00 29.9 10 Este 25 Este 0 1013.2 0.2 33
2019-06-03 11:00:00 28.7 15 Este 27 Este 0 1013.3 0.5 36
2019-06-03 10:00:00 24.8 13 Este 26 Este 0 1013.2 0.8 38
2019-06-03 09:00:00 22 12 Este 24 Este 0 1013 1 40
2019-06-03 08:00:00 19.9 9 Nordeste 19 Este 0 1012.8 0.4 41
2019-06-03 07:00:00 19.5 7 Nordeste 23 Este 0 1012.4 -0.5 39
2019-06-03 06:00:00 20.1 11 Este 24 Sudeste 0 1012 -1.2 39
2019-06-03 05:00:00 20.7 13 Este 28 Este 0 1012.4 -0.6 38
2019-06-03 04:00:00 20.9 11 Este 29 Este 0 1012.9 -0.1 39
2019-06-03 03:00:00 21 16 Este 33 Este 0 1013.2 -0.1 38
2019-06-03 02:00:00 21.6 15 Este 33 Este 0 1013 0.3 37
2019-06-03 01:00:00 21.9 15 Este 30 Sudeste 0 1013 0.8 38
2019-06-03 00:00:00 22.6 17 Este 39 Este 0 1013.3 1.6 37
2019-06-02 23:00:00 22.8 19 Este 41 Este 0 1012.7 1.3 36
2019-06-02 22:00:00 23.7 16 Este 39 Este 0 1012.2 0.7 33
2019-06-02 21:00:00 26.7 19 Este 44 Este 0 1011.7 0.3 28
2019-06-02 20:00:00 28.9 21 Este 43 Este 0 1011.4 -0.4 26
2019-06-02 19:00:00 29.9 24 Este 49 Este 0 1011.5 -1 26
2019-06-02 18:00:00 30.8 24 Este 44 Sudeste 0 1011.4 -1.3 26
2019-06-02 17:00:00 33 19 Este 41 Este 0 1011.8 -1.7 26
2019-06-02 16:00:00 33.1 16 Este 40 Nordeste 0 1012.5 -1.5 26
2019-06-02 15:00:00 31.9 20 Este 47 Sudeste 0 1012.7 -1.2 27
2019-06-02 14:00:00 30.8 19 Este 42 Sudeste 0 1013.5 -0.3 29
2019-06-02 13:00:00 31 19 Este 42 Este 0 1014 0.2 30
2019-06-02 12:00:00 29.1 21 Este 42 Sudeste 0 1013.9 0.4 32
2019-06-02 11:00:00 27.8 19 Este 51 Este 0 1013.8 0.6 33
2019-06-02 10:00:00 25.4 24 Este 47 Este 0 1013.8 0.9 36
2019-06-02 09:00:00 23.2 19 Este 41 Este 0 1013.5 1 38
2019-06-02 08:00:00 21.4 23 Este 41 Este 0 1013.2 0.7 40
2019-06-02 07:00:00 20.9 18 Este 32 Este 0 1012.9 0.4 41
2019-06-02 06:00:00 21.4 18 Este 36 Este 0 1012.5 -0.2 41
2019-06-02 05:00:00 21.4 17 Este 49 Este 0 1012.5 -0.5 42
2019-06-02 04:00:00 21.6 27 Este 54 Nordeste 0 1012.5 -0.6 43
2019-06-02 03:00:00 21.3 26 Este 49 Este 0 1012.7 0.1 43
2019-06-02 02:00:00 21.5 18 Este 40 Este 0 1013 0.3 41
2019-06-02 01:00:00 21.8 20 Este 41 Sudeste 0 1013.1 0.6 41
2019-06-02 00:00:00 21.5 22 Este 52 Este 0 1012.6 0.4 43
2019-06-01 23:00:00 21.9 23 Este 49 Este 0 1012.7 0.8 42
2019-06-01 22:00:00 22.4 22 Este 47 Este 0 1012.5 0.5 41
2019-06-01 21:00:00 24.8 22 Este 48 Este 0 1012.2 0 35
2019-06-01 20:00:00 26.7 23 Este 57 Este 0 1011.9 -1 32
2019-06-01 19:00:00 27.9 28 Este 58 Este 0 1012 -1.2 30
2019-06-01 18:00:00 29.2 26 Este 53 Este 0 1012.2 -1.4 30
2019-06-01 17:00:00 29.4 28 Este 58 Este 0 1012.9 -0.8 30
2019-06-01 16:00:00 29.6 31 Este 66 Este 0 1013.2 -1 30
2019-06-01 15:00:00 29.6 27 Este 63 Este 0 1013.6 -0.7 30
2019-06-01 14:00:00 29 26 Este 59 Este 0 1013.7 -0.6 33
2019-06-01 13:00:00 27.8 32 Este 73 Este 0 1014.2 0.5 36
2019-06-01 12:00:00 27.3 23 Este 55 Este 0 1014.3 0.5 38
2019-06-01 11:00:00 25.4 31 Este 53 Este 0 1014.3 0.8 40
2019-06-01 10:00:00 23.9 29 Este 59 Este 0 1013.7 0.8 43
2019-06-01 09:00:00 21.9 24 Este 46 Este 0 1013.8 0.8 48
2019-06-01 08:00:00 19.9 17 Este 39 Este 0 1013.5 0.1 50
2019-06-01 07:00:00 19.8 22 Este 52 Este 0 1012.9 -0.4 48
2019-06-01 06:00:00 20 23 Este 41 Este 0 1013 -0.1 49
2019-06-01 05:00:00 20 13 Este 45 Este 0 1013.4 0.3 50
2019-06-01 04:00:00 20.1 21 Este 45 Este 0 1013.3 -0.5 53
2019-06-01 03:00:00 20.1 22 Este 54 Sudeste 0 1013.1 -0.9 55
2019-06-01 02:00:00 20.2 24 Este 48 Sudeste 0 1013.1 -0.7 56
2019-06-01 01:00:00 20.5 22 Este 46 Este 0 1013.8 0.5 55
2019-06-01 00:00:00 20.8 19 Este 47 Este 0 1014 1.1 52
2019-05-31 23:00:00 20.9 17 Este 48 Sudeste 0 1013.8 1 46
2019-05-31 22:00:00 22.1 26 Este 57 Este 0 1013.3 0.1 37
2019-05-31 21:00:00 24.2 25 Este 63 Este 0 1012.9 -0.4 33
2019-05-31 20:00:00 26.1 23 Este 57 Este 0 1012.8 -0.7 31
2019-05-31 19:00:00 27.2 27 Este 62 Sudeste 0 1013.2 -0.6 32
2019-05-31 18:00:00 27.3 33 Este 66 Este 0 1013.3 -0.3 32
2019-05-31 17:00:00 28 33 Este 64 Este 0 1013.5 -0.6 31
2019-05-31 16:00:00 28 35 Este 68 Este 0 1013.8 -0.7 31
2019-05-31 15:00:00 27.9 31 Este 63 Este 0 1013.6 -1.1 33
2019-05-31 14:00:00 27.5 34 Este 58 Este 0 1014.1 -0.5 34
2019-05-31 13:00:00 27.2 29 Este 61 Este 0 1014.5 -0.4 37
2019-05-31 12:00:00 26.2 26 Este 63 Este 0 1014.7 0.1 39
2019-05-31 11:00:00 24.8 30 Este 66 Este 0 1014.6 0.1 43
2019-05-31 10:00:00 23.2 30 Este 53 Este 0 1014.9 0.7 49
2019-05-31 09:00:00 21.2 24 Este 53 Este 0 1014.6 0.5 55
2019-05-31 08:00:00 19.4 23 Este 45 Este 0 1014.5 0 58
2019-05-31 07:00:00 18.9 22 Este 45 Este 0 1014.2 -0.5 59
2019-05-31 06:00:00 19 23 Este 44 Este 0 1014.1 -0.7 60
2019-05-31 05:00:00 19.1 22 Este 48 Este 0 1014.5 -0.5 61
2019-05-31 04:00:00 19.2 22 Este 53 Este 0 1014.7 -0.4 59
2019-05-31 03:00:00 19.5 26 Este 51 Este 0 1014.8 -0.7 56
2019-05-31 02:00:00 19.8 22 Este 54 Sudeste 0 1015 -0.3 54
2019-05-31 01:00:00 20 24 Este 55 Este 0 1015.1 0.2 51
2019-05-31 00:00:00 20.6 28 Este 59 Este 0 1015.5 0.8 45
2019-05-30 23:00:00 20.7 31 Este 55 Este 0 1015.3 0.8 47
2019-05-30 22:00:00 21.2 28 Este 63 Este 0 1014.9 0.2 47
2019-05-30 21:00:00 23 28 Este 58 Este 0 1014.7 -0.4 44
2019-05-30 20:00:00 24.3 29 Este 54 Este 0 1014.5 -0.8 42
2019-05-30 19:00:00 25.6 28 Este 63 Nordeste 0 1014.7 -0.7 40
2019-05-30 18:00:00 26.9 26 Este 62 Este 0 1015.1 -0.4 38
2019-05-30 17:00:00 27.3 27 Este 65 Este 0 1015.3 -0.2 38
2019-05-30 16:00:00 26.5 38 Este 77 Este 0 1015.4 -0.3 37
2019-05-30 15:00:00 27.5 36 Este 67 Este 0 1015.5 0.4 39
2019-05-30 14:00:00 26.8 34 Este 62 Este 0 1015.5 0 40
2019-05-30 13:00:00 25.8 32 Este 67 Sudeste 0 1015.7 0.5 42
2019-05-30 12:00:00 25.5 33 Este 69 Sudeste 0 1015.1 0.3 44
2019-05-30 11:00:00 24.2 33 Este 63 Este 0 1015.5 1 47
2019-05-30 10:00:00 23.1 32 Este 60 Este 0 1015.2 1.1 49
2019-05-30 09:00:00 21.8 24 Este 61 Este 0 1014.8 0.9 49
2019-05-30 08:00:00 20.3 24 Este 55 Este 0 1014.5 0.2 51
2019-05-30 07:00:00 19.9 27 Este 53 Sudeste 0 1014.1 -0.2 53
2019-05-30 06:00:00 20.2 28 Este 55 Este 0 1013.9 -0.6 52
2019-05-30 05:00:00 20 24 Este 57 Este 0 1014.3 -0.4 55
2019-05-30 04:00:00 20.2 26 Este 51 Este 0 1014.3 -0.4 56
2019-05-30 03:00:00 20.3 23 Este 52 Sudeste 0 1014.5 0.1 59
2019-05-30 02:00:00 20.1 22 Este 56 Este 0 1014.7 1 60
2019-05-30 01:00:00 20.4 24 Este 54 Sudeste 0 1014.7 1.9 59
2019-05-30 00:00:00 20.6 25 Este 51 Sudeste 0 1014.4 2.2 57
2019-05-29 23:00:00 21.2 22 Este 44 Sudeste 0 1013.7 2.1 47
2019-05-29 22:00:00 22.3 23 Este 45 Sudeste 0 1012.8 1 41
2019-05-29 21:00:00 24.8 24 Este 52 Sudeste 0 1012.2 0.2 35
2019-05-29 20:00:00 26.9 21 Este 46 Este 0 1011.6 -0.6 34
2019-05-29 19:00:00 28.5 23 Este 51 Sudeste 0 1011.8 -0.8 33
2019-05-29 18:00:00 29.2 23 Este 43 Este 0 1012 -0.8 32
2019-05-29 17:00:00 30.3 22 Este 45 Sudeste 0 1012.2 -0.9 32
2019-05-29 16:00:00 30.3 22 Este 50 Este 0 1012.6 -0.6 32
2019-05-29 15:00:00 30.3 22 Este 44 Este 0 1012.8 -0.2 33
2019-05-29 14:00:00 29.4 23 Este 50 Este 0 1013.1 0.3 35
2019-05-29 13:00:00 28.8 25 Este 52 Este 0 1013.2 0.9 36
2019-05-29 12:00:00 27.8 24 Este 50 Este 0 1013 1.2 40
2019-05-29 11:00:00 26.5 26 Este 50 Este 0 1012.8 1.2 43
2019-05-29 10:00:00 25.3 22 Este 45 Sudeste 0 1012.3 1.5 46
2019-05-29 09:00:00 23.1 23 Este 45 Este 0 1011.8 1.3 53
2019-05-29 08:00:00 21.2 18 Este 38 Este 0 1011.6 1.5 59
2019-05-29 07:00:00 20.6 15 Este 36 Sudeste 0 1010.8 1.1 62
2019-05-29 06:00:00 19.9 14 Este 32 Sudeste 0 1010.5 1 66
2019-05-29 05:00:00 18.4 10 Este 23 Sudeste 0 1010.1 0.1 76
2019-05-29 04:00:00 18.9 13 Este 20 Este 0 1009.7 -0.1 75
2019-05-29 03:00:00 19.8 9 Este 16 Este 0 1009.5 -0.4 74
2019-05-29 02:00:00 19.6 6 Este 14 Este 0 1010 0.4 81
2019-05-29 01:00:00 20.2 6 Este 11 Este 0 1009.8 0.4 82
2019-05-29 00:00:00 20.9 2 Sudeste 5 Sur 0 1009.9 0.8 76
2019-05-28 23:00:00 20.4 2 Sudoeste 10 Sudoeste 0 1009.6 0.8 80
2019-05-28 22:00:00 20.9 5 Oeste 14 Sudoeste 0 1009.4 0.6 76
2019-05-28 21:00:00 22.4 7 Oeste 16 Oeste 0 1009.1 0 68
2019-05-28 20:00:00 23.8 6 Sudoeste 19 Sudoeste 0 1008.8 -0.4 61
2019-05-28 19:00:00 23.5 11 Sudoeste 23 Sudoeste 0 1008.8 -0.7 61
2019-05-28 18:00:00 24.1 12 Sudoeste 21 Oeste 0 1009.1 -0.4 62
2019-05-28 17:00:00 23.6 14 Oeste 25 Oeste 0 1009.2 -0.2 61
2019-05-28 16:00:00 23.6 14 Sudoeste 24 Sudoeste 0 1009.5 0.2 63
2019-05-28 15:00:00 23.4 11 Oeste 24 Sudoeste 0 1009.5 0.4 66
2019-05-28 14:00:00 26 12 Sudoeste 21 Sudoeste 0 1009.4 0.8 55
2019-05-28 13:00:00 24.4 8 Oeste 15 Oeste 0 1009.3 0.9 64
2019-05-28 12:00:00 22.6 9 Oeste 17 Oeste 0 1009.1 1.3 73
2019-05-28 11:00:00 22.5 9 Oeste 15 Oeste 0 1008.6 1 70
2019-05-28 10:00:00 22.2 4 Noroeste 9 Oeste 0 1008.4 1.3 69
2019-05-28 09:00:00 20.8 0 Calma 6 Sudeste 0 1007.8 0.9 80
2019-05-28 08:00:00 18.7 4 Este 9 Sudeste 0 1007.6 0.6 85
2019-05-28 07:00:00 19.9 0 Calma 5 Sur 0 1007.1 0 86
2019-05-28 06:00:00 20 2 Sur 5 Este 0 1006.9 -0.5 84
2019-05-28 05:00:00 20.2 2 Sudeste 6 Sur 0 1007 -0.7 80
2019-05-28 04:00:00 20.4 3 Sudeste 6 Sudeste 0 1007.1 -1 77
2019-05-28 03:00:00 21.1 2 Este 8 Sudoeste 0 1007.4 -0.6 75
2019-05-28 02:00:00 21.9 5 Sudoeste 9 Oeste 0 1007.7 -0.5 71
2019-05-28 01:00:00 22.1 0 Calma 8 Sudoeste 0 1008.1 -0.1 68
2019-05-28 00:00:00 22.3 3 Sur 9 Oeste 0 1008 -0.1 67
2019-05-27 23:00:00 22.2 7 Oeste 15 Oeste 0 1008.2 0.4 70
2019-05-27 22:00:00 21.6 10 Oeste 21 Oeste 0 1008.2 0.5 76
2019-05-27 21:00:00 22.1 14 Oeste 24 Oeste 0 1008.1 0.2 76
2019-05-27 20:00:00 23 15 Oeste 25 Oeste 0 1007.8 -0.5 70
2019-05-27 19:00:00 24.5 17 Oeste 30 Oeste 0 1007.7 -1 56
2019-05-27 18:00:00 25.2 20 Oeste 28 Oeste 0 1007.9 -1.3 55
2019-05-27 17:00:00 24.1 17 Oeste 25 Oeste 0 1008.3 -1.5 59
2019-05-27 16:00:00 24.7 13 Oeste 21 Noroeste 0 1008.7 -1.4 56
2019-05-27 15:00:00 24 15 Oeste 23 Oeste 0 1009.2 -1 57
2019-05-27 14:00:00 23.6 15 Oeste 24 Oeste 0 1009.8 -0.5 55
2019-05-27 13:00:00 26 11 Oeste 17 Oeste 0 1010.1 0 46
2019-05-27 12:00:00 25 6 Oeste 13 Oeste 0 1010.2 0.3 49
2019-05-27 11:00:00 24 4 Noroeste 9 Noroeste 0 1010.3 0.8 47
2019-05-27 10:00:00 22.7 4 Noroeste 8 Noroeste 0 1010.1 0.7 52
2019-05-27 09:00:00 20.6 2 Este 14 Este 0 1009.9 0.6 56
2019-05-27 08:00:00 17.9 9 Este 14 Este 0 1009.5 0.1 65
2019-05-27 07:00:00 18.2 4 Este 8 Este 0 1009.4 -0.4 74
2019-05-27 06:00:00 18.9 3 Norte 8 Norte 0 1009.3 -0.7 71
2019-05-27 05:00:00 19.2 3 Norte 12 Este 0 1009.4 -1.3 57
2019-05-27 04:00:00 19.5 3 Este 14 Sudeste 0 1009.8 -1.5 58
2019-05-27 03:00:00 19.4 9 Este 14 Sudeste 0 1010 -1.6 65
2019-05-27 02:00:00 19.9 5 Este 11 Este 0 1010.7 -0.9 72
2019-05-27 01:00:00 20.3 2 Este 4 Este 0 1011.3 0.2 69
2019-05-27 00:00:00 20.3 0 Calma 11 Oeste 0 1011.6 1 73
2019-05-26 23:00:00 21.2 8 Oeste 16 Oeste 0 1011.6 1.3 69
2019-05-26 22:00:00 21.9 12 Oeste 19 Sur 0 1011.1 0.6 56
2019-05-26 21:00:00 26.1 8 Sur 19 Sur 0 1010.6 -0.3 44
2019-05-26 20:00:00 27.3 10 Sur 24 Sur 0 1010.3 -1 43
2019-05-26 19:00:00 27.4 9 Sudoeste 27 Sudoeste 0 1010.5 -1.4 44
2019-05-26 18:00:00 25.4 13 Sudoeste 26 Oeste 0 1010.9 -1.4 51
2019-05-26 17:00:00 25.9 14 Oeste 26 Oeste 0 1011.3 -1.6 46
2019-05-26 16:00:00 24 14 Oeste 24 Sudoeste 0 1011.9 -1.2 53
2019-05-26 15:00:00 25.3 15 Oeste 25 Sudoeste 0 1012.3 -1 48
2019-05-26 14:00:00 24.5 13 Sudoeste 26 Oeste 0 1012.9 -0.4 49
2019-05-26 13:00:00 30.2 9 Sudeste 24 Este 0 1013.1 -0.4 31
2019-05-26 12:00:00 28.8 9 Este 26 Este 0 1013.3 -0.1 33
2019-05-26 11:00:00 26.5 13 Este 29 Este 0 1013.3 0.5 36
2019-05-26 10:00:00 23.8 12 Este 26 Este 0 1013.5 1.2 43
2019-05-26 09:00:00 20.6 9 Este 28 Sudeste 0 1013.4 1.4 52
2019-05-26 08:00:00 18.5 13 Este 27 Sudeste 0 1012.8 0.5 57
2019-05-26 07:00:00 18.3 12 Sudeste 26 Sudeste 0 1012.3 -0.5 60
2019-05-26 06:00:00 18.1 12 Este 24 Sudeste 0 1012 -0.9 63
2019-05-26 05:00:00 17.8 11 Este 24 Sudeste 0 1012.3 -1.1 70
2019-05-26 04:00:00 18.3 12 Sudeste 23 Sudeste 0 1012.8 -1.1 74
2019-05-26 03:00:00 18.6 10 Este 26 Sudeste 0 1012.9 -1 72
2019-05-26 02:00:00 19 11 Este 20 Sudeste 0 1013.4 0.1 69
2019-05-26 01:00:00 19.5 7 Este 17 Sudeste 0 1013.9 1.4 68
2019-05-26 00:00:00 19.8 5 Este 12 Este 0 1013.9 1.9 69
2019-05-25 23:00:00 20.2 5 Este 11 Este 0 1013.3 1.6 78
2019-05-25 22:00:00 20.3 4 Oeste 10 Oeste 0 1012.5 0.9 80
2019-05-25 21:00:00 21.7 8 Oeste 14 Oeste 0 1012 0.4 73
2019-05-25 20:00:00 22.5 9 Oeste 17 Sudoeste 0 1011.7 0 70
2019-05-25 19:00:00 22.7 10 Sudoeste 23 Sudoeste 0 1011.6 -0.3 68
2019-05-25 18:00:00 22.7 14 Sudoeste 26 Sudoeste 0 1011.6 -0.6 65
2019-05-25 17:00:00 22.4 17 Oeste 31 Oeste 0 1011.7 -0.8 68
2019-05-25 16:00:00 22.4 18 Oeste 33 Oeste 0 1011.9 -0.6 67
2019-05-25 15:00:00 22.5 19 Oeste 29 Oeste 0 1012.2 -0.4 67
2019-05-25 14:00:00 22.9 19 Oeste 29 Oeste 0 1012.5 0.3 64
2019-05-25 13:00:00 26 5 Este 21 Nordeste 0 1012.5 0.4 44
2019-05-25 12:00:00 25.1 5 Nordeste 21 Este 0 1012.6 0.9 46
2019-05-25 11:00:00 25.3 11 Este 24 Este 0 1012.2 1.2 52
2019-05-25 10:00:00 22.4 11 Este 26 Sudeste 0 1012.1 1.6 64
2019-05-25 09:00:00 19.4 15 Este 31 Este 0 1011.7 1.6 78
2019-05-25 08:00:00 17.3 6 Sudeste 16 Sudeste 0 1011 1.5 85
2019-05-25 07:00:00 17 6 Sudeste 23 Sur 0 1010.5 0.9 86
2019-05-25 06:00:00 17.4 9 Sur 36 Sudeste 0 1010.1 0.9 88
2019-05-25 05:00:00 17.3 12 Sur 34 Sur 0 1009.5 0.5 87
2019-05-25 04:00:00 18.2 10 Sudeste 33 Sudeste 0 1009.6 0.4 91
2019-05-25 03:00:00 18.3 12 Sudeste 27 Sudeste 0 1009.2 -0.3 91
2019-05-25 02:00:00 18.4 7 Sur 22 Sur 0 1009 -0.6 90
2019-05-25 01:00:00 18.4 6 Sudeste 17 Sudeste 0 1009.2 0.1 88
2019-05-25 00:00:00 18.8 6 Sudeste 18 Sur 0 1009.5 0.9 85
2019-05-24 23:00:00 19.3 6 Sur 15 Sur 0 1009.6 1.4 81
2019-05-24 22:00:00 19.4 6 Sudoeste 18 Sudoeste 0 1009.1 0.4 78
2019-05-24 21:00:00 20.1 8 Sudoeste 24 Sudoeste 0 1008.6 -0.5 75
2019-05-24 20:00:00 20.9 13 Oeste 31 Oeste 0 1008.2 -1 71
2019-05-24 19:00:00 21.2 14 Sudoeste 32 Oeste 0 1008.7 -0.9 68
2019-05-24 18:00:00 21.7 18 Oeste 36 Oeste 0 1009.1 -1 65
2019-05-24 17:00:00 21.5 19 Oeste 36 Oeste 0 1009.2 -1 63
2019-05-24 16:00:00 21.5 23 Oeste 38 Oeste 0 1009.6 -1.3 66
2019-05-24 15:00:00 20.9 21 Oeste 33 Oeste 0 1010.1 -1 66
2019-05-24 14:00:00 20.1 19 Oeste 33 Oeste 0 1010.2 -1.1 70
2019-05-24 13:00:00 19.4 17 Oeste 27 Oeste 0 1010.9 0.1 68
2019-05-24 12:00:00 18.4 15 Oeste 26 Noroeste 0 1011.1 0.3 70
2019-05-24 11:00:00 17.2 15 Noroeste 29 Noroeste 0 1011.3 0.3 73
2019-05-24 10:00:00 17.5 13 Noroeste 25 Noroeste 0 1010.8 0.5 72
2019-05-24 09:00:00 17.6 13 Noroeste 24 Noroeste 0 1010.8 0.2 71
2019-05-24 08:00:00 18 12 Noroeste 22 Noroeste 0 1011 0.2 71
2019-05-24 07:00:00 18.6 6 Noroeste 22 Norte 0 1010.3 -1 72
2019-05-24 06:00:00 19.8 9 Norte 18 Norte 0 1010.6 -1 73
2019-05-24 05:00:00 20 6 Norte 12 Norte 0 1010.8 -1.2 71
2019-05-24 04:00:00 20.3 2 Norte 8 Norte 0 1011.3 -1.1 73
2019-05-24 03:00:00 20.2 2 Oeste 5 Oeste 0 1011.6 -1 76
2019-05-24 02:00:00 20.1 3 Sudoeste 8 Sudeste 0 1012 -0.3 74
2019-05-24 01:00:00 20.9 2 Sudeste 6 Sur 0 1012.4 0.4 72
2019-05-24 00:00:00 21.2 2 Sur 6 Sudeste 0 1012.6 0.6 71
2019-05-23 23:00:00 21 0 Calma 6 Noroeste 0 1012.3 0.7 68
2019-05-23 22:00:00 21.1 3 Oeste 13 Oeste 0 1012 0.3 70
2019-05-23 21:00:00 21.5 10 Oeste 18 Oeste 0 1012 -0.1 71
2019-05-23 20:00:00 23.5 12 Oeste 22 Oeste 0 1011.6 -0.7 64
2019-05-23 19:00:00 24.7 11 Oeste 22 Oeste 0 1011.7 -1.3 58
2019-05-23 18:00:00 24.4 14 Oeste 23 Oeste 0 1012.1 -1 57
2019-05-23 17:00:00 24.3 13 Oeste 25 Oeste 0 1012.3 -1.2 56
2019-05-23 16:00:00 24.5 18 Oeste 26 Oeste 0 1013 -0.8 53
2019-05-23 15:00:00 25.4 18 Noroeste 26 Noroeste 0 1013.1 -0.7 48
2019-05-23 14:00:00 26 11 Oeste 19 Noroeste 0 1013.5 -0.4 48
2019-05-23 13:00:00 25.5 13 Noroeste 19 Noroeste 0 1013.8 -0.1 47
2019-05-23 12:00:00 25.1 9 Noroeste 14 Oeste 0 1013.8 0.3 43
2019-05-23 11:00:00 27.1 5 Este 13 Este 0 1013.9 0.8 33
2019-05-23 10:00:00 23 4 Norte 12 Este 0 1013.9 1.1 51
2019-05-23 09:00:00 20 6 Este 15 Sudeste 0 1013.5 0.5 60
2019-05-23 08:00:00 17.7 8 Este 17 Este 0 1013.1 -0.1 65
2019-05-23 07:00:00 17.8 12 Este 18 Este 0 1012.8 -0.5 65
2019-05-23 06:00:00 18.1 10 Este 18 Nordeste 0 1013 -0.5 62
2019-05-23 05:00:00 17.4 9 Este 21 Este 0 1013.2 -0.8 64
2019-05-23 04:00:00 18.5 11 Este 19 Este 0 1013.3 -0.7 60
2019-05-23 03:00:00 19 11 Nordeste 20 Nordeste 0 1013.5 -0.4 58
2019-05-23 02:00:00 19 6 Este 14 Sudeste 0 1014 0.6 58
2019-05-23 01:00:00 19.4 6 Sudeste 12 Sudeste 0 1014 0.9 58
2019-05-23 00:00:00 19.6 4 Este 13 Sudeste 0 1013.9 1.1 65
2019-05-22 23:00:00 20.1 2 Norte 9 Norte 0 1013.4 1 75
2019-05-22 22:00:00 20 0 Calma 13 Oeste 0 1013.1 0.6 77
2019-05-22 21:00:00 20.5 9 Noroeste 19 Oeste 0 1012.8 0.2 78
2019-05-22 20:00:00 21.1 16 Oeste 22 Oeste 0 1012.4 -0.3 75
2019-05-22 19:00:00 22 15 Oeste 24 Oeste 0 1012.5 -0.4 70
2019-05-22 18:00:00 22.6 14 Oeste 24 Oeste 0 1012.6 -0.5 69
2019-05-22 17:00:00 23.3 16 Oeste 23 Oeste 0 1012.7 -0.7 69
2019-05-22 16:00:00 22.3 16 Oeste 27 Oeste 0 1012.9 -0.5 71
2019-05-22 15:00:00 23.6 15 Oeste 23 Oeste 0 1013.1 -0.3 61
2019-05-22 14:00:00 23.3 15 Oeste 22 Oeste 0 1013.4 0.1 61
2019-05-22 13:00:00 23.1 10 Sudoeste 18 Oeste 0 1013.4 0.2 60
2019-05-22 12:00:00 26.4 7 Sudeste 21 Sudeste 0 1013.4 0.7 47
2019-05-22 11:00:00 24.2 9 Sudeste 24 Este 0 1013.3 0.8 52
2019-05-22 10:00:00 21.2 8 Sudeste 19 Sudeste 0 1013.2 1.4 66
2019-05-22 09:00:00 17.5 6 Sudeste 18 Sudeste 0 1012.7 0.9 79
2019-05-22 08:00:00 15.6 6 Sudeste 16 Sudeste 0 1012.5 0.3 86
2019-05-22 07:00:00 15.3 7 Este 14 Sudeste 0 1011.8 -0.6 91
2019-05-22 06:00:00 15.7 3 Sudeste 11 Sudeste 0 1011.8 -0.6 90
2019-05-22 05:00:00 15.9 7 Sudeste 18 Sudeste 0 1012.2 -0.4 89
2019-05-22 04:00:00 16.1 8 Sudeste 15 Sudeste 0 1012.4 -0.2 88
2019-05-22 03:00:00 16.8 5 Sudeste 10 Sudeste 0 1012.4 -0.5 86
2019-05-22 02:00:00 18.3 2 Oeste 6 Oeste 0 1012.6 0 83
2019-05-22 01:00:00 18.3 4 Noroeste 11 Oeste 0 1012.6 0.5 85
2019-05-22 00:00:00 18.5 4 Oeste 12 Oeste 0 1012.9 1.1 85
2019-05-21 23:00:00 18.7 8 Oeste 18 Oeste 0 1012.6 1.1 83
2019-05-21 22:00:00 18.8 13 Oeste 22 Oeste 0 1012.1 0.8 83
2019-05-21 21:00:00 19.4 14 Oeste 30 Oeste 0 1011.8 0.2 78
2019-05-21 20:00:00 20.2 17 Oeste 31 Oeste 0 1011.5 -0.4 73
2019-05-21 19:00:00 20.4 17 Oeste 27 Oeste 0 1011.3 -1 73
2019-05-21 18:00:00 21.1 15 Oeste 29 Oeste 0 1011.6 -0.8 70
2019-05-21 17:00:00 20.5 19 Oeste 31 Oeste 0 1011.9 -0.7 70
2019-05-21 16:00:00 19.8 20 Oeste 32 Oeste 0 1012.3 -0.3 71
2019-05-21 15:00:00 19.8 18 Oeste 29 Oeste 0 1012.4 -0.1 70
2019-05-21 14:00:00 19.5 15 Oeste 26 Oeste 0 1012.6 0.1 67
2019-05-21 13:00:00 19.6 14 Oeste 23 Oeste 0 1012.6 0.4 67
2019-05-21 12:00:00 19.8 9 Oeste 21 Oeste 0 1012.5 0.6 69
2019-05-21 11:00:00 19.6 5 Oeste 13 Oeste 0 1012.5 0.9 65
2019-05-21 10:00:00 19 2 Noroeste 14 Noroeste 0 1012.2 1.3 70
2019-05-21 09:00:00 17.6 7 Noroeste 14 Noroeste 0 1011.9 1.1 77
2019-05-21 08:00:00 17 6 Norte 12 Norte 0 1011.6 0.8 80
2019-05-21 07:00:00 17 4 Norte 16 Noroeste 0 1010.9 0.1 80
2019-05-21 06:00:00 17.5 6 Norte 14 Norte 0 1010.8 0 77
2019-05-21 05:00:00 17.8 8 Noroeste 17 Noroeste 0 1010.8 -0.4 75
2019-05-21 04:00:00 18.3 8 Noroeste 21 Noroeste 0 1010.8 -0.3 73
2019-05-21 03:00:00 18.7 9 Noroeste 16 Noroeste 0 1010.8 -0.4 73
2019-05-21 02:00:00 18.9 7 Noroeste 19 Oeste 0 1011.2 0.1 79
2019-05-21 01:00:00 18.3 10 Oeste 19 Oeste 0 1011.1 0.7 85
2019-05-21 00:00:00 18.2 11 Oeste 21 Oeste 0 1011.2 1.1 83
2019-05-20 23:00:00 18.4 14 Oeste 23 Oeste 0 1011.1 1.2 78
2019-05-20 22:00:00 18.6 12 Oeste 24 Oeste 0 1010.4 0.4 74
2019-05-20 21:00:00 19 18 Oeste 31 Oeste 0 1010.1 0.2 65
2019-05-20 20:00:00 20.5 20 Oeste 34 Oeste 0 1009.9 -0.4 69
2019-05-20 19:00:00 21.3 19 Oeste 30 Oeste 0 1010 -0.9 43
2019-05-20 18:00:00 22.2 19 Oeste 27 Oeste 0 1009.9 -1.1 39
2019-05-20 17:00:00 21.4 16 Oeste 28 Oeste 0 1010.3 -1 43
2019-05-20 16:00:00 20.9 21 Oeste 29 Oeste 0 1010.9 -0.2 52
2019-05-20 15:00:00 20.6 17 Oeste 26 Oeste 0 1011 -0.1 56
2019-05-20 14:00:00 19.7 14 Oeste 25 Oeste 0 1011.3 0.4 59
2019-05-20 13:00:00 19.6 13 Oeste 23 Oeste 0 1011.1 0.5 67
2019-05-20 12:00:00 19.5 12 Oeste 23 Oeste 0 1011.1 0.8 70
2019-05-20 11:00:00 19.2 10 Oeste 17 Oeste 0 1010.9 1.3 67
2019-05-20 10:00:00 18.5 10 Noroeste 18 Noroeste 0 1010.6 1.4 66
2019-05-20 09:00:00 17.8 8 Noroeste 15 Noroeste 0 1010.3 1.2 72
2019-05-20 08:00:00 17.1 6 Noroeste 9 Oeste 0 1009.6 0.4 80
2019-05-20 07:00:00 17.3 0 Calma 9 Noroeste 0 1009.2 -0.3 79
2019-05-20 06:00:00 17.5 2 Noroeste 15 Noroeste 0 1009.1 -1 78
2019-05-20 05:00:00 18 7 Noroeste 19 Noroeste 0 1009.2 -1.4 79
2019-05-20 04:00:00 17.9 8 Noroeste 15 Oeste 0 1009.5 -1.4 84
2019-05-20 03:00:00 17.8 8 Oeste 16 Oeste 0 1010.1 -1.1 89
2019-05-20 02:00:00 17.9 8 Sudoeste 15 Sudoeste 0 1010.6 -0.3 88
2019-05-20 01:00:00 18 10 Sudoeste 18 Oeste 0 1010.9 0.1 88
2019-05-20 00:00:00 18 12 Oeste 23 Oeste 0 1011.2 0.7 86
2019-05-19 23:00:00 18.3 14 Oeste 27 Oeste 0 1010.9 0.8 85
2019-05-19 22:00:00 18.4 14 Oeste 27 Oeste 0 1010.8 0.5 84
2019-05-19 21:00:00 18.4 18 Oeste 34 Oeste 0 1010.5 -0.1 81
2019-05-19 20:00:00 18.7 23 Oeste 42 Sudoeste 0 1010.1 -0.8 79
2019-05-19 19:00:00 19.7 28 Oeste 42 Oeste 0 1010.3 -1.3 72
2019-05-19 18:00:00 19.7 28 Oeste 42 Oeste 0 1010.6 -1.1 68
2019-05-19 17:00:00 20.1 24 Oeste 37 Oeste 0 1010.9 -0.8 62
2019-05-19 16:00:00 19.3 21 Oeste 33 Oeste 0 1011.6 -0.4 62
2019-05-19 15:00:00 18.4 22 Oeste 36 Oeste 0 1011.7 -0.5 61
2019-05-19 14:00:00 18.5 18 Oeste 31 Oeste 0 1011.7 -0.3 62
2019-05-19 13:00:00 18 16 Oeste 31 Noroeste 0 1012 0.1 57
2019-05-19 12:00:00 17.4 21 Noroeste 34 Noroeste 0 1012.2 0.8 58
2019-05-19 11:00:00 17.2 22 Noroeste 34 Noroeste 0 1012 0.8 60
2019-05-19 10:00:00 16.8 20 Noroeste 34 Noroeste 0 1011.9 1 61
2019-05-19 09:00:00 16 21 Noroeste 34 Noroeste 0 1011.4 0.6 62
2019-05-19 08:00:00 16.1 17 Noroeste 30 Noroeste 0 1011.2 0.3 65
2019-05-19 07:00:00 16 17 Noroeste 31 Noroeste 0 1010.9 0 68
2019-05-19 06:00:00 16.4 17 Noroeste 35 Oeste 0 1010.8 -0.2 68
2019-05-19 05:00:00 16.7 15 Noroeste 33 Noroeste 0 1010.9 -0.6 63
2019-05-19 04:00:00 17 18 Noroeste 36 Noroeste 0 1010.9 -0.6 65
2019-05-19 03:00:00 17.2 23 Noroeste 36 Noroeste 0 1011 -0.6 68
2019-05-19 02:00:00 18.3 17 Noroeste 37 Noroeste 0 1011.5 0 56
2019-05-19 01:00:00 18.6 22 Noroeste 37 Noroeste 0 1011.5 0.3 56
2019-05-19 00:00:00 19.1 17 Noroeste 26 Noroeste 0 1011.6 0.5 62
2019-05-18 23:00:00 17.8 11 Oeste 34 Oeste 0 1011.5 0.8 77
2019-05-18 22:00:00 17.7 21 Oeste 42 Oeste 0 1011.2 0.5 74
2019-05-18 21:00:00 18 26 Oeste 45 Oeste 0 1011.1 0.5 68
2019-05-18 20:00:00 18.4 29 Oeste 48 Oeste 0 1010.7 0 61
2019-05-18 19:00:00 18.8 33 Oeste 52 Oeste 0 1010.7 -0.6 60
2019-05-18 18:00:00 18.8 31 Oeste 49 Oeste 0 1010.6 -0.8 60
2019-05-18 17:00:00 18.7 31 Oeste 47 Oeste 0 1010.7 -0.9 58
2019-05-18 16:00:00 18.5 26 Oeste 42 Oeste 0 1011.3 -0.7 53
2019-05-18 15:00:00 18.4 24 Oeste 40 Oeste 0 1011.4 -0.3 52
2019-05-18 14:00:00 17.8 23 Noroeste 35 Oeste 0 1011.6 0.2 50
2019-05-18 13:00:00 17.1 21 Noroeste 34 Noroeste 0 1012 0.7 56
2019-05-18 12:00:00 17 21 Noroeste 31 Noroeste 0 1011.7 0.9 55
2019-05-18 11:00:00 16.8 15 Noroeste 27 Noroeste 0 1011.4 0.9 54
2019-05-18 10:00:00 16.5 15 Noroeste 29 Noroeste 0 1011.3 1.3 58
2019-05-18 09:00:00 15.2 14 Noroeste 31 Noroeste 0 1010.8 1.1 60
2019-05-18 08:00:00 14.7 15 Noroeste 32 Noroeste 0 1010.5 1.1 62
2019-05-18 07:00:00 14.9 15 Noroeste 35 Noroeste 0 1010 0.1 61
2019-05-18 06:00:00 15.5 17 Noroeste 36 Noroeste 0 1009.7 -0.5 59
2019-05-18 05:00:00 16 14 Noroeste 30 Noroeste 0 1009.4 -1 58
2019-05-18 04:00:00 16.7 17 Noroeste 34 Noroeste 0 1009.9 -0.4 55
2019-05-18 03:00:00 17.4 13 Noroeste 33 Norte 0 1010.2 -0.6 53
2019-05-18 02:00:00 18.4 15 Noroeste 36 Noroeste 0 1010.4 -0.4 53
2019-05-18 01:00:00 19.1 17 Noroeste 27 Noroeste 0 1010.3 0 68
2019-05-18 00:00:00 17.8 17 Oeste 33 Oeste 0 1010.8 0.4 81
2019-05-17 23:00:00 17.7 22 Oeste 37 Oeste 0 1010.8 0.4 76
2019-05-17 22:00:00 17.5 22 Oeste 39 Oeste 0 1010.3 -0.1 71
2019-05-17 21:00:00 17.8 26 Oeste 46 Oeste 0 1010.4 -0.5 67
2019-05-17 20:00:00 18.8 29 Oeste 47 Oeste 0 1010.4 -0.9 60
2019-05-17 19:00:00 18.6 27 Oeste 43 Oeste 0 1010.4 -1.4 58
2019-05-17 18:00:00 19.2 30 Oeste 46 Oeste 0 1010.9 -1 56
2019-05-17 17:00:00 19.2 31 Oeste 44 Oeste 0 1011.3 -0.9 56
2019-05-17 16:00:00 18.9 22 Oeste 40 Oeste 0 1011.8 -0.6 54
2019-05-17 15:00:00 18.7 20 Oeste 36 Oeste 0 1011.9 -0.3 52
2019-05-17 14:00:00 17.8 19 Oeste 32 Oeste 0 1012.2 0.2 52
2019-05-17 13:00:00 17.4 19 Oeste 28 Noroeste 0 1012.4 0.5 55
2019-05-17 12:00:00 17 14 Noroeste 25 Noroeste 0 1012.2 0.8 53
2019-05-17 11:00:00 16.5 12 Noroeste 29 Noroeste 0 1012 1 53
2019-05-17 10:00:00 15.8 12 Norte 30 Noroeste 0 1011.9 1.4 56
2019-05-17 09:00:00 14.7 16 Noroeste 35 Noroeste 0 1011.4 1.3 62
2019-05-17 08:00:00 14.5 19 Noroeste 34 Noroeste 0 1011 1.1 58
2019-05-17 07:00:00 14.7 17 Noroeste 38 Norte 0 1010.5 0.8 56
2019-05-17 06:00:00 15.2 17 Noroeste 40 Noroeste 0 1010.1 0.4 56
2019-05-17 05:00:00 15.8 22 Noroeste 39 Noroeste 0 1009.9 0.4 61
2019-05-17 04:00:00 16.5 21 Noroeste 40 Noroeste 0 1009.7 0.7 61
2019-05-17 03:00:00 17.3 18 Noroeste 42 Noroeste 0 1009.7 1.2 61
2019-05-17 02:00:00 18.8 19 Noroeste 49 Noroeste 0 1009.5 1.4 60
2019-05-17 01:00:00 20.3 23 Noroeste 48 Noroeste 0 1009 1.1 62
2019-05-17 00:00:00 21.9 21 Noroeste 35 Noroeste 0 1008.5 1.1 64